Rochester, Texas
Current Conditions -  °F | °C
As of 10:58 PM on Wednesday 26 Nov 2014 (Local Time) from KDYS Reporting Station
Clear Clear  
Wind Chill:   Ceiling: Unl
Heat Index:   Visibility: 10mi
Dew Point: -1°   Wind: 2mph
Humidity: 83%   Direction: 200°SSW
Pressure: 30.39"   Gusts: NA
Location:  33.32°N, 99.86°W
Report Text: KDYS 270458Z AUTO 20002KT 10SM CLR 02/M01 A3039 RMK AO2 SLP292 T00171009 $
Loading
Personal Weather Stations






























Interactive Weather Map New forecast layout! Learn more

10-Day Weather Forecast

Advertisements
Track Severe Weather on mobile